Terminal Aerodrome Forecast
Issued by NWS Indianapolis, IN

Home | Current Version | Previous Version | Text Only | Print | Product List | Glossary On
Versions: 1 2 3 4 5 6 7 8 9 10 11 12 13 14 15 16 17 18 19 20 21 22 23 24 25 26 27 28 29 30 31 32 33 34 35 36 37
000
FTUS43 KIND 220200 AAA
TAFIND
TAF AMD
KIND 220214Z 2202/2306 02006KT P6SM BKN040
     FM220400 02006KT P6SM SKC
     FM221600 02006KT P6SM SKC
     FM222300 03004KT P6SM SKC=

USA.gov is the U.S. government's official web portal to all federal, state and local government web resources and services.